Floweree, Montana
Current Conditions -  °F | °C
As of 2:31 PM on Wednesday 26 Nov 2014 (Local Time) from KGFA Reporting Station
Light Snow Light Snow  
Wind Chill: 21°   Ceiling: 2800
Heat Index: 30°   Visibility: 3mi
Dew Point: 28°   Wind: 12mph
Humidity: 93%   Direction: 110°ESE
Pressure: 30.11"   Gusts: NA
Location:  47.73°N, 111.03°W
Report Text: KGFA 262131Z AUTO 11010KT 3SM -SN OVC028 M01/M02 A3011 RMK AO2 CIG 023V028
Loading
Personal Weather Stations






























Interactive Weather Map New forecast layout! Learn more

10-Day Weather Forecast

Advertisements
Track Severe Weather on mobile